createdAt,value
2023-02-04T00:00:26.471Z,7.55
2023-02-04T00:02:53.843Z,8.60
2023-02-04T00:05:22.029Z,8.77
2023-02-04T00:07:49.172Z,12.68
2023-02-04T00:10:16.420Z,7.82
2023-02-04T00:12:43.734Z,9.50
2023-02-04T00:15:11.042Z,7.70
2023-02-04T00:17:39.457Z,8.82
2023-02-04T00:20:07.083Z,10.25
2023-02-04T00:22:34.161Z,9.05
2023-02-04T00:25:01.238Z,10.07
2023-02-04T00:27:28.387Z,10.68
2023-02-04T00:29:55.537Z,8.60
2023-02-04T00:32:22.651Z,7.57
2023-02-04T00:34:50.048Z,9.80
2023-02-04T00:37:17.162Z,7.90
2023-02-04T00:39:44.475Z,10.07
2023-02-04T00:42:11.702Z,9.75
2023-02-04T00:44:38.844Z,8.02
2023-02-04T00:47:05.961Z,8.73
2023-02-04T00:49:35.991Z,9.13
2023-02-04T00:52:03.025Z,11.43
2023-02-04T00:54:30.142Z,8.68
2023-02-04T00:56:57.399Z,11.48
2023-02-04T00:59:24.905Z,8.48
2023-02-04T01:01:52.069Z,11.48
2023-02-04T01:04:19.655Z,12.60
2023-02-04T01:06:46.853Z,10.68
2023-02-04T01:09:14.074Z,10.38
2023-02-04T01:11:41.188Z,12.48
2023-02-04T01:14:08.299Z,9.18
2023-02-04T01:16:35.587Z,8.52
2023-02-04T01:19:02.829Z,10.35
2023-02-04T01:21:31.333Z,12.48
2023-02-04T01:23:58.572Z,10.15
2023-02-04T01:26:25.820Z,10.80
2023-02-04T01:28:52.871Z,10.70
2023-02-04T01:31:20.214Z,10.35
2023-02-04T01:33:47.388Z,10.85
2023-02-04T01:36:14.497Z,10.20
2023-02-04T01:38:41.556Z,11.35
2023-02-04T01:41:09.416Z,14.45
2023-02-04T01:43:36.535Z,12.05
2023-02-04T01:46:04.251Z,11.18
2023-02-04T01:48:31.590Z,11.85
2023-02-04T01:51:14.987Z,11.88
2023-02-04T01:53:42.834Z,10.27
2023-02-04T01:56:22.107Z,10.32
2023-02-04T01:58:50.390Z,11.50
2023-02-04T02:01:42.128Z,10.57
2023-02-04T02:04:11.900Z,11.80
2023-02-04T02:06:42.854Z,10.98
2023-02-04T02:09:10.080Z,10.25
2023-02-04T02:11:37.748Z,10.60
2023-02-04T02:14:05.121Z,8.77
2023-02-04T02:16:52.412Z,11.15
2023-02-04T02:19:30.977Z,11.18
2023-02-04T02:22:24.527Z,11.00
2023-02-04T02:27:18.758Z,9.85
2023-02-04T02:29:45.957Z,10.68
2023-02-04T02:32:15.453Z,10.23
2023-02-04T02:34:43.583Z,10.55
2023-02-04T02:37:11.096Z,10.95
2023-02-04T02:39:39.720Z,10.80
2023-02-04T02:42:07.357Z,9.82
2023-02-04T02:44:34.779Z,11.23
2023-02-04T02:47:01.958Z,10.18
2023-02-04T02:49:32.015Z,9.90
2023-02-04T02:51:59.831Z,9.50
2023-02-04T02:54:31.424Z,10.18
2023-02-04T02:56:59.434Z,9.00
2023-02-04T02:59:27.727Z,11.25
2023-02-04T03:02:02.194Z,6.82
2023-02-04T03:04:31.665Z,9.07
2023-02-04T03:06:59.147Z,8.48
2023-02-04T03:09:28.630Z,12.45
2023-02-04T03:11:56.337Z,12.10
2023-02-04T03:14:25.465Z,10.13
2023-02-04T03:16:54.605Z,10.23
2023-02-04T03:19:26.329Z,11.30
2023-02-04T03:21:55.780Z,12.10
2023-02-04T03:24:23.547Z,11.43
2023-02-04T03:26:50.739Z,11.45
2023-02-04T03:29:17.987Z,11.07
2023-02-04T03:31:45.451Z,10.45
2023-02-04T03:34:12.841Z,13.57
2023-02-04T03:36:40.059Z,10.77
2023-02-04T03:39:07.203Z,11.02
2023-02-04T03:41:34.243Z,13.02
2023-02-04T03:44:01.431Z,11.95
2023-02-04T03:46:28.990Z,12.43
2023-02-04T03:48:56.264Z,11.40
2023-02-04T03:51:23.320Z,11.10
2023-02-04T03:53:50.362Z,11.68
2023-02-04T03:56:17.567Z,12.85
2023-02-04T03:58:44.700Z,12.10
2023-02-04T04:01:11.846Z,12.18
2023-02-04T04:03:38.944Z,13.38
2023-02-04T04:06:08.802Z,13.02
2023-02-04T04:08:36.589Z,10.75
2023-02-04T04:11:03.832Z,12.25
2023-02-04T04:13:30.961Z,14.40
2023-02-04T04:15:58.178Z,12.80
2023-02-04T04:18:25.336Z,10.85
2023-02-04T04:20:52.431Z,11.38
2023-02-04T04:23:19.478Z,12.93
2023-02-04T04:25:46.700Z,11.05
2023-02-04T04:28:13.947Z,11.68
2023-02-04T04:30:41.082Z,12.02
2023-02-04T04:33:08.270Z,11.75
2023-02-04T04:35:35.482Z,10.60
2023-02-04T04:38:03.702Z,14.38
2023-02-04T04:40:31.356Z,12.27
2023-02-04T04:42:58.627Z,12.65
2023-02-04T04:45:25.756Z,12.05
2023-02-04T04:47:52.883Z,10.82
2023-02-04T04:50:20.072Z,9.90
2023-02-04T04:52:47.501Z,9.07
2023-02-04T04:55:14.691Z,11.15
2023-02-04T04:57:41.713Z,10.00
2023-02-04T05:00:12.066Z,10.00
2023-02-04T05:02:39.144Z,10.07
2023-02-04T05:05:06.737Z,10.75
2023-02-04T05:07:33.957Z,11.05
2023-02-04T05:10:01.007Z,9.43
2023-02-04T05:12:28.321Z,10.32
2023-02-04T05:14:55.434Z,7.78
2023-02-04T05:17:22.443Z,10.52
2023-02-04T05:19:49.454Z,9.63
2023-02-04T05:22:16.608Z,13.65
2023-02-04T05:24:43.594Z,8.05
2023-02-04T05:27:10.646Z,6.03
2023-02-04T05:29:37.936Z,10.60
2023-02-04T05:32:05.084Z,8.63
2023-02-04T05:34:32.304Z,7.78
2023-02-04T05:36:59.530Z,7.50
2023-02-04T05:39:26.547Z,7.20
2023-02-04T05:41:53.603Z,9.32
2023-02-04T05:44:20.809Z,7.35
2023-02-04T05:46:47.825Z,8.05
2023-02-04T05:49:14.944Z,6.22
2023-02-04T05:51:41.985Z,6.80
2023-02-04T05:54:09.197Z,6.80
2023-02-04T05:56:36.280Z,6.18
2023-02-04T05:59:03.688Z,6.75
2023-02-04T06:01:30.785Z,6.05
2023-02-04T06:03:57.859Z,5.95
2023-02-04T06:06:25.016Z,6.78
2023-02-04T06:08:52.083Z,5.85
2023-02-04T06:11:19.130Z,7.22
2023-02-04T06:13:46.294Z,7.72
2023-02-04T06:16:14.911Z,6.55
2023-02-04T06:18:42.391Z,8.82
2023-02-04T06:21:09.549Z,8.00
2023-02-04T06:23:36.637Z,7.20
2023-02-04T06:26:03.996Z,5.97
2023-02-04T06:28:31.170Z,7.72
2023-02-04T06:30:58.444Z,6.90
2023-02-04T06:33:25.549Z,7.93
2023-02-04T06:35:52.945Z,9.23
2023-02-04T06:38:20.000Z,7.63
2023-02-04T06:40:53.693Z,7.03
2023-02-04T06:43:21.900Z,8.75
2023-02-04T06:45:51.093Z,9.35
2023-02-04T06:48:18.856Z,8.43
2023-02-04T06:50:46.078Z,11.30
2023-02-04T06:53:13.127Z,11.55
2023-02-04T06:55:40.304Z,9.20
2023-02-04T06:58:07.664Z,9.75
2023-02-04T07:00:34.862Z,10.82
2023-02-04T07:03:02.534Z,9.23
2023-02-04T07:05:32.779Z,10.63
2023-02-04T07:07:59.878Z,11.48
2023-02-04T07:10:27.046Z,9.15
2023-02-04T07:12:54.076Z,11.30
2023-02-04T07:15:21.151Z,11.20
2023-02-04T07:17:48.238Z,10.90
2023-02-04T07:20:15.372Z,10.98
2023-02-04T07:22:42.631Z,10.52
2023-02-04T07:25:11.568Z,10.05
2023-02-04T07:27:39.955Z,10.75
2023-02-04T07:30:07.520Z,14.07
2023-02-04T07:32:35.964Z,11.48
2023-02-04T07:35:03.107Z,10.77
2023-02-04T07:37:30.728Z,11.35
2023-02-04T07:39:57.714Z,12.48
2023-02-04T07:42:24.796Z,18.80
2023-02-04T07:44:51.851Z,17.58
2023-02-04T07:47:18.868Z,22.95
2023-02-04T07:49:45.904Z,11.02
2023-02-04T07:52:12.907Z,8.32
2023-02-04T07:54:39.899Z,19.40
2023-02-04T07:57:07.094Z,14.02
2023-02-04T07:59:34.257Z,14.48
2023-02-04T08:02:02.041Z,10.90
2023-02-04T08:04:29.089Z,11.48
2023-02-04T08:06:56.159Z,13.20
2023-02-04T08:09:24.091Z,13.15
2023-02-04T08:11:51.178Z,12.55
2023-02-04T08:14:18.281Z,14.48
2023-02-04T08:16:45.264Z,12.85
2023-02-04T08:19:12.884Z,12.48
2023-02-04T08:21:39.897Z,12.70
2023-02-04T08:24:07.083Z,15.90
2023-02-04T08:26:34.178Z,12.60
2023-02-04T08:29:01.259Z,11.05
2023-02-04T08:31:28.371Z,12.82
2023-02-04T08:33:55.462Z,13.93
2023-02-04T08:36:24.827Z,12.70
2023-02-04T08:38:52.057Z,13.68
2023-02-04T08:41:19.136Z,12.57
2023-02-04T08:43:47.381Z,12.23
2023-02-04T08:46:14.624Z,14.60
2023-02-04T08:48:41.877Z,14.20
2023-02-04T08:51:09.042Z,12.23
2023-02-04T08:53:36.134Z,13.38
2023-02-04T08:56:03.339Z,11.55
2023-02-04T08:58:30.604Z,10.90
2023-02-04T09:00:57.695Z,14.02
2023-02-04T09:03:24.824Z,17.60
2023-02-04T09:05:51.913Z,13.95
2023-02-04T09:08:19.125Z,12.30
2023-02-04T09:10:46.228Z,11.35
2023-02-04T09:13:14.512Z,12.38
2023-02-04T09:15:41.593Z,10.70
2023-02-04T09:18:19.274Z,11.20
2023-02-04T09:20:46.454Z,11.05
2023-02-04T09:23:13.769Z,10.32
2023-02-04T09:25:42.938Z,9.27
2023-02-04T09:28:11.933Z,9.13
2023-02-04T09:30:40.550Z,11.10
2023-02-04T09:33:08.320Z,13.02
2023-02-04T09:35:35.623Z,9.93
2023-02-04T09:38:02.831Z,10.10
2023-02-04T09:40:34.912Z,9.00
2023-02-04T09:43:03.343Z,12.35
2023-02-04T09:45:34.449Z,15.25
2023-02-04T09:48:04.708Z,9.73
2023-02-04T09:50:33.166Z,12.77
2023-02-04T09:53:10.054Z,15.27
2023-02-04T09:55:40.426Z,9.20
2023-02-04T09:58:19.680Z,14.10
2023-02-04T10:00:50.641Z,16.80
2023-02-04T10:03:22.427Z,11.88
2023-02-04T10:05:50.717Z,13.70
2023-02-04T10:08:20.237Z,14.40
2023-02-04T10:10:49.654Z,11.20
2023-02-04T10:13:34.900Z,13.18
2023-02-04T10:16:03.635Z,12.98
2023-02-04T10:18:34.285Z,18.50
2023-02-04T10:21:21.748Z,18.55
2023-02-04T10:23:53.895Z,19.58
2023-02-04T10:26:22.434Z,19.27
2023-02-04T10:28:49.941Z,19.67
2023-02-04T10:31:37.977Z,18.85
2023-02-04T10:34:11.081Z,20.20
2023-02-04T10:36:39.588Z,20.42
2023-02-04T10:39:16.537Z,20.70
2023-02-04T10:42:01.929Z,19.08
2023-02-04T10:44:32.130Z,20.50
2023-02-04T10:47:04.202Z,20.80
2023-02-04T10:49:31.325Z,18.98
2023-02-04T10:51:58.918Z,13.93
2023-02-04T10:54:38.722Z,12.90
2023-02-04T10:57:24.819Z,17.83
2023-02-04T10:59:54.889Z,16.88
2023-02-04T11:02:46.783Z,17.65
2023-02-04T11:05:20.388Z,16.05
2023-02-04T11:07:48.888Z,17.05
2023-02-04T11:10:24.927Z,19.90
2023-02-04T11:12:54.715Z,17.98
2023-02-04T11:15:50.362Z,19.05
2023-02-04T11:18:21.105Z,16.35
2023-02-04T11:20:50.568Z,15.70
2023-02-04T11:23:38.043Z,18.52
2023-02-04T11:26:13.617Z,13.63
2023-02-04T11:28:58.554Z,14.63
2023-02-04T11:31:26.037Z,14.20
2023-02-04T11:34:14.053Z,12.68
2023-02-04T11:37:02.783Z,11.77
2023-02-04T11:39:37.239Z,13.48
2023-02-04T11:42:25.744Z,13.88
2023-02-04T11:45:01.374Z,14.85
2023-02-04T11:47:36.886Z,15.77
2023-02-04T11:50:25.929Z,15.80
2023-02-04T11:52:55.306Z,16.80
2023-02-04T11:55:22.487Z,19.30
2023-02-04T11:57:55.750Z,19.85
2023-02-04T12:00:32.352Z,21.05
2023-02-04T12:03:07.953Z,20.85
2023-02-04T12:05:41.090Z,22.30
2023-02-04T12:08:24.179Z,22.17
2023-02-04T12:11:07.606Z,21.98
2023-02-04T12:13:46.451Z,22.65
2023-02-04T12:16:13.653Z,21.65
2023-02-04T12:18:40.773Z,23.00
2023-02-04T12:21:08.200Z,24.02
2023-02-04T12:23:35.278Z,22.55
2023-02-04T12:26:02.627Z,23.42
2023-02-04T12:28:29.759Z,21.45
2023-02-04T12:30:57.573Z,22.77
2023-02-04T12:33:24.793Z,20.92
2023-02-04T12:35:52.358Z,23.23
2023-02-04T12:38:20.669Z,23.33
2023-02-04T12:40:48.018Z,20.45
2023-02-04T12:43:15.027Z,21.48
2023-02-04T12:45:45.845Z,22.92
2023-02-04T12:48:14.106Z,20.67
2023-02-04T12:50:41.509Z,20.15
2023-02-04T12:53:09.104Z,21.67
2023-02-04T12:55:36.620Z,22.45
2023-02-04T12:58:04.253Z,20.75
2023-02-04T13:00:31.493Z,21.08
2023-02-04T13:03:01.341Z,19.05
2023-02-04T13:05:28.690Z,20.60
2023-02-04T13:07:55.901Z,20.92
2023-02-04T13:10:24.100Z,21.17
2023-02-04T13:12:51.912Z,23.58
2023-02-04T13:15:19.629Z,23.40
2023-02-04T13:17:46.754Z,24.00
2023-02-04T13:20:14.465Z,24.65
2023-02-04T13:22:41.650Z,26.33
2023-02-04T13:25:10.582Z,22.52
2023-02-04T13:27:40.831Z,27.55
2023-02-04T13:30:11.781Z,23.35
2023-02-04T13:32:38.909Z,27.08
2023-02-04T13:35:06.252Z,23.92
2023-02-04T13:37:33.292Z,23.50
2023-02-04T13:40:00.385Z,23.70
2023-02-04T13:42:27.591Z,27.60
2023-02-04T13:44:55.347Z,26.35
2023-02-04T13:47:22.445Z,29.27
2023-02-04T13:49:49.728Z,33.53
2023-02-04T13:52:18.553Z,31.15
2023-02-04T13:54:46.265Z,29.92
2023-02-04T13:57:13.440Z,28.48
2023-02-04T13:59:40.581Z,28.65
2023-02-04T14:02:09.011Z,30.48
2023-02-04T14:04:37.000Z,27.27
2023-02-04T14:07:04.339Z,27.27
2023-02-04T14:09:31.542Z,25.58
2023-02-04T14:11:58.563Z,27.85
2023-02-04T14:14:25.605Z,28.77
2023-02-04T14:16:52.737Z,30.15
2023-02-04T14:19:20.570Z,33.92
2023-02-04T14:21:48.828Z,30.23
2023-02-04T14:24:17.453Z,30.80
2023-02-04T14:26:44.729Z,31.90
2023-02-04T14:29:12.161Z,32.30
2023-02-04T14:31:39.472Z,31.52
2023-02-04T14:34:06.606Z,32.55
2023-02-04T14:36:33.691Z,31.73
2023-02-04T14:39:00.769Z,28.92
2023-02-04T14:41:30.272Z,28.00
2023-02-04T14:43:57.922Z,32.60
2023-02-04T14:46:25.047Z,31.08
2023-02-04T14:48:52.883Z,29.45
2023-02-04T14:51:19.969Z,29.45
2023-02-04T14:53:48.680Z,27.75
2023-02-04T14:56:16.971Z,29.10
2023-02-04T14:58:44.075Z,28.83
2023-02-04T15:01:11.155Z,30.25
2023-02-04T15:03:38.306Z,27.90
2023-02-04T15:06:05.624Z,29.13
2023-02-04T15:08:34.510Z,30.45
2023-02-04T15:11:01.597Z,30.50
2023-02-04T15:13:29.462Z,30.00
2023-02-04T15:15:56.723Z,28.58
2023-02-04T15:18:24.044Z,34.10
2023-02-04T15:20:51.152Z,29.85
2023-02-04T15:23:18.276Z,27.63
2023-02-04T15:25:45.598Z,28.02
2023-02-04T15:28:13.088Z,27.95
2023-02-04T15:30:40.384Z,30.27
2023-02-04T15:33:07.561Z,30.52
2023-02-04T15:35:37.640Z,29.63
2023-02-04T15:38:04.781Z,28.10
2023-02-04T15:40:32.280Z,27.80
2023-02-04T15:42:59.466Z,30.33
2023-02-04T15:45:26.607Z,26.77
2023-02-04T15:47:53.810Z,27.38
2023-02-04T15:50:20.901Z,28.60
2023-02-04T15:52:48.042Z,28.67
2023-02-04T15:55:15.542Z,28.65
2023-02-04T15:57:42.695Z,28.40
2023-02-04T16:00:10.461Z,25.33
2023-02-04T16:02:37.675Z,26.58
2023-02-04T16:05:05.141Z,28.35
2023-02-04T16:07:32.453Z,27.35
2023-02-04T16:09:59.722Z,26.63
2023-02-04T16:12:26.888Z,25.42
2023-02-04T16:14:53.937Z,24.00
2023-02-04T16:17:21.133Z,25.08
2023-02-04T16:19:48.134Z,32.70
2023-02-04T16:22:15.469Z,26.70
2023-02-04T16:24:42.960Z,31.40
2023-02-04T16:27:10.041Z,29.63
2023-02-04T16:29:37.151Z,30.70
2023-02-04T16:32:04.240Z,28.42
2023-02-04T16:34:31.392Z,31.63
2023-02-04T16:36:58.427Z,30.85
2023-02-04T16:39:25.546Z,30.58
2023-02-04T16:41:52.613Z,30.25
2023-02-04T16:44:19.654Z,28.35
2023-02-04T16:46:49.213Z,26.95
2023-02-04T16:49:17.150Z,26.92
2023-02-04T16:51:44.194Z,27.38
2023-02-04T16:54:11.387Z,30.55
2023-02-04T16:56:38.428Z,28.15
2023-02-04T16:59:05.457Z,30.70
2023-02-04T17:01:32.774Z,26.73
2023-02-04T17:03:59.950Z,27.23
2023-02-04T17:06:29.289Z,27.17
2023-02-04T17:08:56.828Z,26.30
2023-02-04T17:11:34.077Z,27.08
2023-02-04T17:14:06.145Z,26.33
2023-02-04T17:16:33.603Z,30.67
2023-02-04T17:19:01.755Z,29.90
2023-02-04T17:21:30.724Z,29.77
2023-02-04T17:24:04.229Z,28.30
2023-02-04T17:26:37.352Z,27.45
2023-02-04T17:29:07.216Z,29.00
2023-02-04T17:31:34.793Z,24.10
2023-02-04T17:34:03.336Z,22.98
2023-02-04T17:36:31.330Z,26.65
2023-02-04T17:38:58.692Z,25.13
2023-02-04T17:41:26.364Z,24.77
2023-02-04T17:43:53.388Z,22.88
2023-02-04T17:46:20.922Z,22.77
2023-02-04T17:48:48.156Z,24.95
2023-02-04T17:51:15.267Z,23.42
2023-02-04T17:53:42.516Z,23.52
2023-02-04T17:56:14.653Z,24.92
2023-02-04T17:58:42.750Z,26.75
2023-02-04T18:01:12.657Z,25.35
2023-02-04T18:03:42.834Z,24.95
2023-02-04T18:06:23.936Z,25.23
2023-02-04T18:08:52.935Z,24.55
2023-02-04T18:11:27.532Z,24.02
2023-02-04T18:14:00.983Z,23.02
2023-02-04T18:19:20.997Z,23.45
2023-02-04T18:21:49.430Z,23.92
2023-02-04T18:24:33.114Z,24.38
2023-02-04T18:27:06.986Z,23.13
2023-02-04T18:32:21.446Z,20.70
2023-02-04T18:34:51.271Z,20.65
2023-02-04T18:37:37.678Z,18.75
2023-02-04T18:40:10.543Z,21.05
2023-02-04T18:42:43.350Z,24.65
2023-02-04T18:45:25.246Z,20.92
2023-02-04T18:47:59.090Z,22.17
2023-02-04T18:50:32.434Z,25.42
2023-02-04T18:53:15.053Z,22.25
2023-02-04T18:55:55.145Z,23.02
2023-02-04T18:58:37.756Z,22.58
2023-02-04T19:01:17.266Z,20.48
2023-02-04T19:03:55.825Z,22.85
2023-02-04T19:06:25.920Z,24.13
2023-02-04T19:08:53.548Z,22.90
2023-02-04T19:11:37.093Z,25.98
2023-02-04T19:14:21.411Z,27.00
2023-02-04T19:16:50.961Z,23.80
2023-02-04T19:19:59.268Z,24.23
2023-02-04T19:22:49.852Z,23.40
2023-02-04T19:25:25.668Z,24.10
2023-02-04T19:27:58.720Z,21.30
2023-02-04T19:32:57.572Z,24.17
2023-02-04T19:35:27.181Z,24.67
2023-02-04T19:37:55.436Z,22.85
2023-02-04T19:40:37.084Z,24.73
2023-02-04T19:43:18.668Z,24.15
2023-02-04T19:45:46.640Z,24.88
2023-02-04T19:48:22.150Z,22.15
2023-02-04T19:50:53.241Z,21.92
2023-02-04T19:53:23.016Z,21.95
2023-02-04T19:55:51.953Z,23.92
2023-02-04T19:58:25.003Z,23.95
2023-02-04T20:03:35.962Z,22.48
2023-02-04T20:06:30.253Z,22.23
2023-02-04T20:08:58.914Z,21.58
2023-02-04T20:11:33.084Z,24.20
2023-02-04T20:14:19.979Z,21.90
2023-02-04T20:16:59.308Z,23.83
2023-02-04T20:19:35.703Z,24.05
2023-02-04T20:22:17.976Z,24.75
2023-02-04T20:24:48.222Z,21.80
2023-02-04T20:27:35.708Z,21.88
2023-02-04T20:30:11.490Z,22.35
2023-02-04T20:32:43.710Z,21.33
2023-02-04T20:35:13.795Z,21.40
2023-02-04T20:37:42.427Z,23.35
2023-02-04T20:40:36.419Z,23.63
2023-02-04T20:43:11.234Z,20.90
2023-02-04T20:45:42.342Z,22.65
2023-02-04T20:48:18.430Z,21.23
2023-02-04T20:50:48.792Z,20.90
2023-02-04T20:53:28.487Z,22.27
2023-02-04T20:56:04.297Z,22.10
2023-02-04T20:58:45.671Z,23.17
2023-02-04T21:01:38.114Z,19.92
2023-02-04T21:04:53.963Z,19.60
2023-02-04T21:07:23.159Z,21.65
2023-02-04T21:09:51.781Z,21.42
2023-02-04T21:12:19.468Z,22.33
2023-02-04T21:14:46.535Z,22.85
2023-02-04T21:17:13.651Z,20.15
2023-02-04T21:19:40.751Z,18.98
2023-02-04T21:22:07.864Z,19.38
2023-02-04T21:24:35.121Z,18.90
2023-02-04T21:27:02.429Z,19.80
2023-02-04T21:29:29.779Z,18.52
2023-02-04T21:31:57.020Z,20.58
2023-02-04T21:34:24.131Z,20.13
2023-02-04T21:36:51.306Z,21.85
2023-02-04T21:39:18.337Z,19.73
2023-02-04T21:41:45.536Z,20.85
2023-02-04T21:44:12.548Z,19.42
2023-02-04T21:46:39.635Z,21.63
2023-02-04T21:49:06.755Z,19.83
2023-02-04T21:51:33.832Z,21.90
2023-02-04T21:54:04.509Z,19.83
2023-02-04T21:56:31.806Z,19.52
2023-02-04T21:58:59.103Z,22.05
2023-02-04T22:01:26.480Z,18.65
2023-02-04T22:03:53.827Z,19.92
2023-02-04T22:06:21.002Z,20.52
2023-02-04T22:08:48.067Z,20.50
2023-02-04T22:11:15.167Z,18.50
2023-02-04T22:14:00.701Z,20.50
2023-02-04T22:16:28.004Z,18.95
2023-02-04T22:18:55.006Z,21.30
2023-02-04T22:21:22.057Z,19.27
2023-02-04T22:23:49.216Z,20.48
2023-02-04T22:26:16.244Z,19.67
2023-02-04T22:28:43.288Z,17.13
2023-02-04T22:31:10.424Z,21.30
2023-02-04T22:33:37.573Z,18.52
2023-02-04T22:36:04.798Z,18.10
2023-02-04T22:38:31.889Z,19.15
2023-02-04T22:40:59.113Z,19.77
2023-02-04T22:43:26.293Z,18.85
2023-02-04T22:45:53.461Z,19.65
2023-02-04T22:48:20.483Z,20.73
2023-02-04T22:50:47.592Z,20.77
2023-02-04T22:53:14.668Z,20.23
2023-02-04T22:55:41.871Z,18.30
2023-02-04T22:58:08.992Z,17.95
2023-02-04T23:00:36.086Z,17.98
2023-02-04T23:03:03.132Z,16.65
2023-02-04T23:05:30.950Z,18.90
2023-02-04T23:07:58.345Z,19.33
2023-02-04T23:10:25.360Z,16.13
2023-02-04T23:12:52.436Z,17.63
2023-02-04T23:15:19.536Z,17.63
2023-02-04T23:17:46.838Z,18.77
2023-02-04T23:20:13.921Z,16.98
2023-02-04T23:22:41.192Z,17.30
2023-02-04T23:25:08.554Z,17.42
2023-02-04T23:27:35.766Z,18.35
2023-02-04T23:30:05.877Z,16.48
2023-02-04T23:32:33.019Z,17.52
2023-02-04T23:35:00.112Z,15.63
2023-02-04T23:37:27.274Z,14.93
2023-02-04T23:39:54.358Z,14.60
2023-02-04T23:42:21.392Z,17.73
2023-02-04T23:44:48.633Z,17.00
2023-02-04T23:47:15.721Z,13.85
2023-02-04T23:49:42.938Z,16.75
2023-02-04T23:52:10.013Z,17.85
2023-02-04T23:54:37.072Z,16.02
2023-02-04T23:57:04.576Z,16.65
2023-02-04T23:59:31.766Z,15.60
